createdAt,value
2022-12-17T00:03:41.090Z,56.65
2022-12-17T00:18:40.495Z,56.12
2022-12-17T00:33:40.405Z,57.75
2022-12-17T00:48:40.350Z,57.88
2022-12-17T01:18:40.660Z,58.04
2022-12-17T01:33:40.737Z,55.99
2022-12-17T01:48:40.664Z,53.33
2022-12-17T02:03:40.014Z,53.71
2022-12-17T02:18:40.355Z,51.03
2022-12-17T02:33:40.248Z,50.02
2022-12-17T02:48:39.904Z,49.41
2022-12-17T03:33:40.719Z,38.11
2022-12-17T03:48:40.920Z,35.58
2022-12-17T04:18:40.222Z,24.94
2022-12-17T04:33:40.207Z,24.16
2022-12-17T04:48:40.257Z,21.51
2022-12-17T05:03:41.080Z,16.62
2022-12-17T05:18:40.598Z,14.71
2022-12-17T05:33:39.998Z,13.93
2022-12-17T05:48:40.670Z,59.74
2022-12-17T06:03:41.017Z,19.09
2022-12-17T06:18:40.071Z,10.92
2022-12-17T06:33:40.265Z,11.23
2022-12-17T06:48:40.486Z,10.64
2022-12-17T07:03:40.154Z,9.81
2022-12-17T07:18:40.680Z,8.78
2022-12-17T07:33:40.061Z,9.07
2022-12-17T08:03:41.118Z,12.17
2022-12-17T08:18:39.999Z,17.46
2022-12-17T08:33:40.058Z,37.66
2022-12-17T08:48:40.152Z,19.18
2022-12-17T09:33:40.641Z,22.77
2022-12-17T09:48:40.663Z,32.38
2022-12-17T10:03:40.381Z,32.75
2022-12-17T10:18:40.755Z,36.18
2022-12-17T10:33:40.019Z,28.02
2022-12-17T11:03:40.343Z,30.66
2022-12-17T11:18:40.439Z,50.09
2022-12-17T11:33:40.095Z,48.96
2022-12-17T11:48:40.726Z,47.65
2022-12-17T12:03:40.693Z,53.11
2022-12-17T12:18:40.451Z,60.22
2022-12-17T12:33:40.010Z,68.87
2022-12-17T12:48:40.643Z,68.83
2022-12-17T13:03:40.374Z,70.6
2022-12-17T13:18:40.584Z,65.7
2022-12-17T13:33:40.518Z,73.25
2022-12-17T13:48:40.716Z,72.31
2022-12-17T14:04:04.904Z,71.84
2022-12-17T14:18:40.106Z,51.13
2022-12-17T14:33:40.351Z,58.1
2022-12-17T14:48:40.333Z,49.92
2022-12-17T15:03:40.218Z,68.67
2022-12-17T15:18:40.606Z,46.95
2022-12-17T15:33:40.722Z,42.12
2022-12-17T15:48:46.473Z,58.55
2022-12-17T16:03:40.175Z,63.57
2022-12-17T16:18:40.501Z,63.93
2022-12-17T16:48:41.734Z,57.15
2022-12-17T17:03:40.094Z,60.3
2022-12-17T17:18:40.587Z,58
2022-12-17T17:33:40.160Z,51.12
2022-12-17T17:48:40.803Z,44.83
2022-12-17T18:33:45.583Z,32.16
2022-12-17T18:48:40.612Z,30.07
2022-12-17T19:18:40.634Z,35.41
2022-12-17T19:48:43.721Z,21.83
2022-12-17T21:48:42.298Z,14.68
2022-12-17T22:34:08.196Z,9.67
2022-12-17T22:48:40.756Z,9.06
2022-12-17T23:18:45.047Z,6.4
2022-12-17T23:33:40.944Z,4.67
2022-12-17T23:48:44.971Z,4.42
